createdAt,value
2023-02-09T00:00:02.819Z,62.83
2023-02-09T00:06:22.597Z,63.02
2023-02-09T00:12:45.577Z,64.49
2023-02-09T00:19:05.658Z,64.97
2023-02-09T00:25:28.659Z,64.87
2023-02-09T00:31:48.862Z,65.22
2023-02-09T00:38:11.775Z,65.44
2023-02-09T00:44:31.615Z,65.12
2023-02-09T00:50:54.631Z,65.24
2023-02-09T00:57:14.709Z,65.44
2023-02-09T01:03:37.656Z,65.64
2023-02-09T01:09:57.637Z,65.72
2023-02-09T01:16:20.675Z,65.63
2023-02-09T01:22:40.688Z,66.15
2023-02-09T01:29:03.557Z,66.67
2023-02-09T01:35:23.614Z,66.67
2023-02-09T01:41:46.571Z,66.83
2023-02-09T01:48:06.660Z,66.88
2023-02-09T01:54:29.686Z,66.49
2023-02-09T02:00:49.586Z,67.25
2023-02-09T02:07:12.666Z,67.43
2023-02-09T02:13:32.708Z,67.71
2023-02-09T02:19:55.655Z,68.37
2023-02-09T02:26:15.585Z,68.55
2023-02-09T02:32:38.599Z,69.03
2023-02-09T02:38:58.574Z,69.21
2023-02-09T02:45:21.585Z,69.78
2023-02-09T02:51:41.611Z,69.95
2023-02-09T02:58:04.573Z,70.36
2023-02-09T03:04:24.573Z,70.24
2023-02-09T03:10:47.804Z,70.62
2023-02-09T03:17:07.608Z,71.04
2023-02-09T03:23:30.571Z,70.91
2023-02-09T03:29:50.748Z,70.74
2023-02-09T03:36:13.668Z,70.93
2023-02-09T03:42:33.651Z,71.27
2023-02-09T03:48:56.594Z,71.75
2023-02-09T03:55:16.595Z,72.13
2023-02-09T04:01:39.594Z,71.89
2023-02-09T04:07:59.651Z,71.77
2023-02-09T04:24:46.571Z,72.54
2023-02-09T04:31:06.610Z,72.39
2023-02-09T04:37:29.582Z,72.03
2023-02-09T04:43:49.583Z,71.69
2023-02-09T04:50:12.670Z,71.99
2023-02-09T04:56:32.578Z,72.43
2023-02-09T05:02:55.675Z,72.64
2023-02-09T05:09:15.579Z,72.96
2023-02-09T05:15:38.657Z,72.87
2023-02-09T05:21:58.628Z,72.58
2023-02-09T05:28:21.588Z,73.07
2023-02-09T05:34:41.590Z,73.22
2023-02-09T05:41:04.603Z,73.57
2023-02-09T05:47:24.648Z,74.47
2023-02-09T05:53:47.575Z,73.96
2023-02-09T06:00:07.586Z,73.94
2023-02-09T06:06:30.596Z,74.14
2023-02-09T06:12:50.557Z,74.68
2023-02-09T06:19:13.595Z,74.46
2023-02-09T06:25:33.752Z,73.82
2023-02-09T06:31:56.639Z,73.88
2023-02-09T06:38:16.592Z,73.35
2023-02-09T06:44:39.574Z,72.6
2023-02-09T06:50:59.583Z,73.04
2023-02-09T06:57:22.638Z,73.5
2023-02-09T07:03:42.602Z,73.3
2023-02-09T07:10:05.586Z,73.44
2023-02-09T07:16:25.699Z,72.81
2023-02-09T07:22:48.583Z,72.96
2023-02-09T07:29:08.594Z,73.05
2023-02-09T07:35:31.635Z,72.97
2023-02-09T07:41:51.625Z,73.23
2023-02-09T07:48:14.609Z,73.22
2023-02-09T07:54:34.589Z,72.71
2023-02-09T08:00:59.877Z,71.8
2023-02-09T08:07:18.607Z,71.19
2023-02-09T08:13:41.696Z,70.85
2023-02-09T08:20:01.642Z,70.4
2023-02-09T08:26:24.681Z,70
2023-02-09T08:32:44.610Z,69.53
2023-02-09T08:39:07.593Z,69.15
2023-02-09T08:45:27.714Z,68.84
2023-02-09T08:51:50.610Z,68.08
2023-02-09T08:58:10.579Z,67.52
2023-02-09T09:04:33.709Z,67.16
2023-02-09T09:10:54.023Z,66.31
2023-02-09T09:17:16.900Z,66.04
2023-02-09T09:32:48.559Z,64.5
2023-02-09T09:39:08.546Z,63.5
2023-02-09T09:45:31.584Z,62.22
2023-02-09T09:51:52.028Z,61.45
2023-02-09T09:58:14.592Z,60.94
2023-02-09T10:04:34.705Z,60.02
2023-02-09T10:10:57.600Z,59.36
2023-02-09T10:17:17.685Z,58.68
2023-02-09T10:23:40.574Z,58.58
2023-02-09T10:30:00.777Z,57.31
2023-02-09T10:36:23.651Z,56.06
2023-02-09T10:42:43.576Z,55.28
2023-02-09T10:49:06.641Z,55.09
2023-02-09T10:55:26.671Z,54.01
2023-02-09T11:01:49.727Z,52.73
2023-02-09T11:08:09.657Z,53.04
2023-02-09T11:14:32.588Z,52.28
2023-02-09T11:20:52.633Z,51.57
2023-02-09T11:27:15.683Z,50.33
2023-02-09T11:33:35.598Z,49.22
2023-02-09T11:39:58.594Z,50.11
2023-02-09T11:46:18.658Z,49.14
2023-02-09T11:52:41.600Z,49.18
2023-02-09T11:59:01.620Z,48.51
2023-02-09T12:05:24.598Z,48.3
2023-02-09T12:11:45.522Z,46.93
2023-02-09T12:18:08.568Z,47.66
2023-02-09T12:24:28.638Z,45.84
2023-02-09T12:30:51.655Z,45.67
2023-02-09T12:37:11.579Z,41.57
2023-02-09T12:43:34.640Z,40.84
2023-02-09T12:49:54.583Z,41.55
2023-02-09T12:56:17.613Z,40.61
2023-02-09T13:02:37.599Z,40.34
2023-02-09T13:09:00.573Z,39.96
2023-02-09T13:15:20.593Z,38.74
2023-02-09T13:21:43.618Z,37.13
2023-02-09T13:28:03.610Z,38.7
2023-02-09T13:34:26.843Z,38.45
2023-02-09T13:40:46.620Z,38.53
2023-02-09T13:47:09.594Z,39.68
2023-02-09T13:53:29.568Z,38.92
2023-02-09T13:59:52.629Z,37.74
2023-02-09T14:06:12.595Z,36.67
2023-02-09T14:12:35.573Z,36.13
2023-02-09T14:18:55.704Z,37.42
2023-02-09T14:25:18.602Z,37.27
2023-02-09T14:31:38.591Z,38.09
2023-02-09T14:48:07.776Z,39.49
2023-02-09T14:54:27.652Z,40.31
2023-02-09T15:00:50.568Z,41.01
2023-02-09T15:07:10.641Z,40.12
2023-02-09T15:13:33.577Z,40.18
2023-02-09T15:19:53.617Z,43.05
2023-02-09T15:26:16.629Z,43.28
2023-02-09T15:32:36.575Z,44.46
2023-02-09T15:38:59.595Z,45.08
2023-02-09T15:45:19.593Z,46.12
2023-02-09T15:51:42.599Z,46.56
2023-02-09T15:58:02.594Z,48.36
2023-02-09T16:04:25.612Z,48.04
2023-02-09T16:10:45.864Z,49.41
2023-02-09T16:17:08.623Z,50.31
2023-02-09T16:23:28.617Z,50.25
2023-02-09T16:29:51.596Z,52.13
2023-02-09T16:36:11.669Z,52.55
2023-02-09T16:42:34.632Z,53.22
2023-02-09T16:48:54.591Z,54.25
2023-02-09T16:55:17.586Z,56.3
2023-02-09T17:01:37.653Z,56.71
2023-02-09T17:08:00.588Z,57.95
2023-02-09T17:14:20.635Z,59.4
2023-02-09T17:20:43.590Z,59.04
2023-02-09T17:27:03.678Z,59.85
2023-02-09T17:33:26.607Z,61.06
2023-02-09T17:39:46.608Z,60.72
2023-02-09T17:46:09.756Z,61.42
2023-02-09T17:52:29.662Z,61.47
2023-02-09T17:58:52.671Z,63.15
2023-02-09T18:05:12.607Z,63.31
2023-02-09T18:11:35.612Z,64.21
2023-02-09T18:17:55.638Z,64.6
2023-02-09T18:24:18.644Z,64.44
2023-02-09T18:30:38.656Z,65.29
2023-02-09T18:37:01.658Z,66.46
2023-02-09T18:43:21.654Z,67.13
2023-02-09T18:49:44.573Z,67.83
2023-02-09T18:56:04.650Z,67.78
2023-02-09T19:02:27.683Z,68.28
2023-02-09T19:08:47.563Z,69.69
2023-02-09T19:15:10.700Z,70.51
2023-02-09T19:21:30.662Z,70.87
2023-02-09T19:27:53.629Z,71.64
2023-02-09T19:34:13.731Z,71.64
2023-02-09T19:40:36.671Z,71.63
2023-02-09T20:03:43.119Z,73.67
2023-02-09T20:10:02.576Z,73.11
2023-02-09T20:16:25.663Z,72.52
2023-02-09T20:22:45.653Z,72.28
2023-02-09T20:29:08.688Z,72.05
2023-02-09T20:35:28.624Z,72.01
2023-02-09T20:41:51.596Z,72.43
2023-02-09T20:48:11.594Z,72.03
2023-02-09T20:54:34.616Z,71.39
2023-02-09T21:00:54.635Z,71.51
2023-02-09T21:07:17.609Z,71.42
2023-02-09T21:13:37.564Z,71.16
2023-02-09T21:20:00.712Z,70.77
2023-02-09T21:26:20.599Z,70.42
2023-02-09T21:32:43.591Z,70.54
2023-02-09T21:39:03.655Z,70.53
2023-02-09T21:45:26.591Z,70.88
2023-02-09T21:51:46.647Z,71.51
2023-02-09T21:58:09.603Z,72.38
2023-02-09T22:04:29.842Z,73.53
2023-02-09T22:10:52.929Z,73.36
2023-02-09T22:17:12.639Z,73.38
2023-02-09T22:23:35.577Z,73.83
2023-02-09T22:29:55.604Z,74.4
2023-02-09T22:36:18.659Z,75.13
2023-02-09T22:42:38.754Z,75.86
2023-02-09T22:49:01.801Z,75.33
2023-02-09T22:55:21.638Z,75.86
2023-02-09T23:18:30.604Z,77.14
2023-02-09T23:24:50.638Z,77.23
2023-02-09T23:31:13.721Z,77.14
2023-02-09T23:37:38.043Z,76.99
2023-02-09T23:43:56.612Z,76.47
2023-02-09T23:50:16.626Z,76.69
2023-02-09T23:56:39.739Z,76.38
